createdAt,value
2023-05-16T00:00:58.495Z,100.00
2023-05-16T00:03:27.055Z,100.00
2023-05-16T00:05:56.163Z,100.00
2023-05-16T00:08:24.028Z,100.00
2023-05-16T00:10:54.909Z,100.00
2023-05-16T00:13:25.823Z,100.00
2023-05-16T00:15:56.189Z,100.00
2023-05-16T00:18:26.179Z,100.00
2023-05-16T00:20:54.818Z,100.00
2023-05-16T00:23:22.949Z,100.00
2023-05-16T00:25:50.994Z,100.00
2023-05-16T00:28:18.857Z,100.00
2023-05-16T00:30:46.668Z,100.00
2023-05-16T00:33:15.686Z,100.00
2023-05-16T00:35:43.577Z,100.00
2023-05-16T00:38:11.501Z,100.00
2023-05-16T00:40:39.439Z,100.00
2023-05-16T00:43:07.605Z,100.00
2023-05-16T00:45:35.430Z,100.00
2023-05-16T00:48:04.016Z,100.00
2023-05-16T00:50:34.641Z,100.00
2023-05-16T00:53:02.314Z,100.00
2023-05-16T00:55:29.965Z,100.00
2023-05-16T00:57:58.311Z,100.00
2023-05-16T01:00:26.293Z,100.00
2023-05-16T01:02:54.162Z,100.00
2023-05-16T01:05:22.179Z,100.00
2023-05-16T01:07:51.171Z,100.00
2023-05-16T01:10:18.966Z,100.00
2023-05-16T01:12:50.305Z,100.00
2023-05-16T01:15:22.433Z,100.00
2023-05-16T01:17:59.251Z,100.00
2023-05-16T01:20:35.386Z,100.00
2023-05-16T01:23:19.322Z,100.00
2023-05-16T01:25:58.574Z,100.00
2023-05-16T01:28:28.814Z,100.00
2023-05-16T01:30:56.803Z,100.00
2023-05-16T01:33:25.029Z,100.00
2023-05-16T01:35:59.195Z,100.00
2023-05-16T01:38:28.724Z,100.00
2023-05-16T01:41:01.213Z,100.00
2023-05-16T01:43:35.505Z,100.00
2023-05-16T01:46:10.724Z,100.00
2023-05-16T01:48:44.467Z,100.00
2023-05-16T01:51:13.442Z,100.00
2023-05-16T01:53:41.278Z,100.00
2023-05-16T01:56:12.720Z,100.00
2023-05-16T01:58:43.523Z,100.00
2023-05-16T02:01:11.668Z,100.00
2023-05-16T02:03:39.924Z,100.00
2023-05-16T02:06:08.251Z,100.00
2023-05-16T02:08:36.269Z,100.00
2023-05-16T02:11:04.277Z,100.00
2023-05-16T02:13:32.407Z,100.00
2023-05-16T02:16:01.857Z,100.00
2023-05-16T02:18:29.697Z,100.00
2023-05-16T02:20:57.698Z,100.00
2023-05-16T02:23:25.757Z,100.00
2023-05-16T02:25:53.601Z,100.00
2023-05-16T02:28:21.641Z,100.00
2023-05-16T02:30:58.293Z,100.00
2023-05-16T02:33:28.297Z,100.00
2023-05-16T02:35:56.364Z,100.00
2023-05-16T02:38:24.250Z,100.00
2023-05-16T02:40:52.181Z,100.00
2023-05-16T02:43:20.083Z,100.00
2023-05-16T02:45:48.123Z,100.00
2023-05-16T02:48:16.034Z,100.00
2023-05-16T02:50:45.331Z,100.00
2023-05-16T02:53:13.841Z,100.00
2023-05-16T02:55:42.092Z,100.00
2023-05-16T02:58:09.981Z,100.00
2023-05-16T03:00:37.742Z,100.00
2023-05-16T03:03:06.036Z,100.00
2023-05-16T03:05:33.962Z,100.00
2023-05-16T03:08:03.143Z,100.00
2023-05-16T03:10:31.028Z,100.00
2023-05-16T03:12:58.924Z,100.00
2023-05-16T03:15:26.889Z,100.00
2023-05-16T03:17:55.025Z,100.00
2023-05-16T03:20:23.352Z,100.00
2023-05-16T03:22:51.132Z,100.00
2023-05-16T03:25:20.394Z,100.00
2023-05-16T03:27:48.468Z,100.00
2023-05-16T03:30:17.330Z,100.00
2023-05-16T03:32:46.671Z,100.00
2023-05-16T03:35:14.754Z,100.00
2023-05-16T03:37:42.661Z,100.00
2023-05-16T03:40:12.092Z,100.00
2023-05-16T03:42:41.381Z,100.00
2023-05-16T03:45:10.087Z,100.00
2023-05-16T03:47:38.022Z,100.00
2023-05-16T03:50:07.235Z,100.00
2023-05-16T03:52:35.225Z,100.00
2023-05-16T03:55:03.952Z,100.00
2023-05-16T03:57:33.396Z,100.00
2023-05-16T04:00:04.247Z,100.00
2023-05-16T04:02:32.244Z,100.00
2023-05-16T04:05:00.188Z,100.00
2023-05-16T04:07:28.335Z,100.00
2023-05-16T04:09:58.838Z,100.00
2023-05-16T04:12:26.949Z,100.00
2023-05-16T04:14:54.767Z,100.00
2023-05-16T04:17:24.042Z,100.00
2023-05-16T04:19:51.924Z,100.00
2023-05-16T04:22:19.851Z,100.00
2023-05-16T04:24:47.671Z,100.00
2023-05-16T04:27:15.867Z,100.00
2023-05-16T04:29:44.375Z,100.00
2023-05-16T04:32:12.539Z,100.00
2023-05-16T04:34:44.167Z,100.00
2023-05-16T04:37:11.875Z,100.00
2023-05-16T04:39:39.670Z,100.00
2023-05-16T04:42:07.755Z,100.00
2023-05-16T04:44:35.425Z,100.00
2023-05-16T04:47:03.001Z,100.00
2023-05-16T04:49:30.749Z,100.00
2023-05-16T04:51:59.647Z,100.00
2023-05-16T04:54:27.391Z,100.00
2023-05-16T04:56:54.959Z,100.00
2023-05-16T04:59:22.577Z,100.00
2023-05-16T05:01:50.166Z,100.00
2023-05-16T05:04:18.220Z,100.00
2023-05-16T05:06:45.814Z,100.00
2023-05-16T05:09:14.737Z,100.00
2023-05-16T05:11:42.325Z,100.00
2023-05-16T05:14:09.932Z,100.00
2023-05-16T05:16:38.120Z,99.52
2023-05-16T05:19:05.790Z,99.37
2023-05-16T05:21:33.386Z,98.51
2023-05-16T05:24:00.950Z,98.23
2023-05-16T05:26:29.963Z,98.85
2023-05-16T05:29:05.306Z,97.67
2023-05-16T05:31:34.894Z,95.96
2023-05-16T05:34:03.137Z,96.08
2023-05-16T05:36:30.907Z,94.54
2023-05-16T05:38:58.785Z,92.52
2023-05-16T05:41:26.745Z,91.49
2023-05-16T05:43:55.734Z,91.46
2023-05-16T05:46:23.713Z,90.87
2023-05-16T05:48:51.496Z,88.86
2023-05-16T05:51:19.217Z,89.06
2023-05-16T05:53:46.837Z,87.13
2023-05-16T05:56:14.496Z,87.24
2023-05-16T05:58:42.504Z,87.26
2023-05-16T06:01:11.654Z,86.29
2023-05-16T06:03:39.614Z,88.16
2023-05-16T06:06:10.256Z,88.86
2023-05-16T06:08:38.593Z,88.78
2023-05-16T06:11:06.261Z,88.51
2023-05-16T06:13:33.833Z,89.11
2023-05-16T06:16:01.518Z,89.37
2023-05-16T06:18:30.802Z,88.86
2023-05-16T06:20:58.973Z,89.05
2023-05-16T06:23:27.207Z,88.38
2023-05-16T06:25:54.823Z,88.25
2023-05-16T06:28:22.429Z,88.27
2023-05-16T06:30:51.775Z,88.87
2023-05-16T06:33:19.475Z,89.16
2023-05-16T06:35:48.706Z,88.48
2023-05-16T06:38:16.743Z,89.51
2023-05-16T06:40:44.370Z,89.19
2023-05-16T06:43:12.675Z,89.44
2023-05-16T06:45:40.506Z,89.27
2023-05-16T06:48:09.049Z,89.44
2023-05-16T06:50:36.770Z,87.84
2023-05-16T06:53:07.297Z,88.20
2023-05-16T06:55:35.028Z,87.95
2023-05-16T06:58:02.718Z,88.61
2023-05-16T07:00:30.597Z,88.57
2023-05-16T07:02:58.278Z,88.46
2023-05-16T07:05:26.066Z,88.51
2023-05-16T07:07:53.850Z,89.19
2023-05-16T07:10:23.142Z,89.14
2023-05-16T07:12:51.022Z,88.81
2023-05-16T07:15:18.655Z,89.11
2023-05-16T07:17:46.366Z,88.81
2023-05-16T07:20:14.785Z,88.40
2023-05-16T07:22:42.450Z,87.58
2023-05-16T07:25:12.710Z,88.18
2023-05-16T07:27:44.687Z,88.00
2023-05-16T07:30:13.974Z,87.70
2023-05-16T07:32:42.601Z,87.47
2023-05-16T07:35:11.067Z,88.60
2023-05-16T07:37:41.437Z,88.49
2023-05-16T07:40:10.373Z,88.74
2023-05-16T07:42:38.051Z,88.45
2023-05-16T07:45:08.434Z,88.08
2023-05-16T07:47:36.300Z,88.84
2023-05-16T07:50:04.296Z,89.11
2023-05-16T07:52:31.981Z,88.77
2023-05-16T07:54:59.617Z,88.60
2023-05-16T07:57:27.473Z,88.52
2023-05-16T07:59:55.138Z,88.33
2023-05-16T08:02:26.284Z,89.66
2023-05-16T08:04:54.129Z,89.62
2023-05-16T08:07:22.209Z,89.62
2023-05-16T08:09:49.820Z,91.40
2023-05-16T08:12:17.543Z,90.13
2023-05-16T08:14:45.203Z,89.96
2023-05-16T08:17:12.972Z,89.58
2023-05-16T08:19:41.998Z,89.87
2023-05-16T08:22:10.480Z,90.31
2023-05-16T08:24:38.142Z,90.35
2023-05-16T08:27:06.383Z,89.49
2023-05-16T08:29:33.980Z,90.87
2023-05-16T08:32:02.021Z,89.47
2023-05-16T08:34:32.186Z,89.48
2023-05-16T08:37:01.460Z,90.36
2023-05-16T08:39:30.587Z,90.70
2023-05-16T08:41:58.913Z,90.79
2023-05-16T08:44:26.650Z,91.15
2023-05-16T08:46:55.103Z,90.98
2023-05-16T08:49:22.826Z,90.55
2023-05-16T08:51:52.850Z,90.24
2023-05-16T08:54:22.694Z,90.89
2023-05-16T08:56:51.260Z,90.34
2023-05-16T08:59:23.444Z,90.63
2023-05-16T09:01:51.618Z,91.79
2023-05-16T09:04:19.506Z,91.19
2023-05-16T09:06:49.276Z,90.99
2023-05-16T09:09:16.918Z,90.91
2023-05-16T09:11:46.016Z,91.63
2023-05-16T09:14:14.177Z,90.21
2023-05-16T09:16:41.929Z,91.03
2023-05-16T09:19:14.078Z,91.29
2023-05-16T09:21:41.878Z,91.87
2023-05-16T09:24:10.765Z,93.18
2023-05-16T09:26:39.511Z,93.60
2023-05-16T09:29:13.222Z,93.83
2023-05-16T09:31:41.279Z,94.62
2023-05-16T09:34:11.161Z,93.40
2023-05-16T09:36:39.653Z,93.81
2023-05-16T09:39:08.597Z,94.31
2023-05-16T09:41:36.675Z,94.43
2023-05-16T09:44:05.613Z,93.24
2023-05-16T09:46:38.425Z,92.36
2023-05-16T09:49:06.249Z,92.93
2023-05-16T09:51:34.706Z,93.05
2023-05-16T09:54:02.427Z,92.18
2023-05-16T09:56:30.715Z,91.59
2023-05-16T09:58:58.460Z,90.14
2023-05-16T10:01:26.166Z,90.68
2023-05-16T10:03:55.439Z,89.38
2023-05-16T10:06:23.512Z,87.99
2023-05-16T10:08:52.117Z,87.63
2023-05-16T10:11:20.297Z,86.45
2023-05-16T10:13:53.001Z,86.46
2023-05-16T10:16:23.030Z,85.76
2023-05-16T10:18:51.394Z,84.97
2023-05-16T10:21:20.803Z,85.19
2023-05-16T10:23:49.785Z,84.68
2023-05-16T10:26:18.455Z,83.63
2023-05-16T10:28:46.638Z,81.58
2023-05-16T10:31:15.177Z,79.25
2023-05-16T10:33:42.984Z,79.28
2023-05-16T10:36:11.194Z,79.71
2023-05-16T10:38:40.766Z,78.76
2023-05-16T10:41:08.862Z,76.18
2023-05-16T10:43:36.941Z,76.87
2023-05-16T10:46:06.236Z,77.59
2023-05-16T10:48:35.765Z,77.38
2023-05-16T10:51:04.353Z,77.67
2023-05-16T10:53:33.935Z,78.32
2023-05-16T10:56:13.170Z,76.25
2023-05-16T10:58:45.115Z,77.46
2023-05-16T11:01:20.673Z,77.76
2023-05-16T11:04:10.097Z,75.91
2023-05-16T11:06:46.835Z,75.59
2023-05-16T11:09:26.584Z,75.47
2023-05-16T11:12:00.691Z,73.30
2023-05-16T11:14:32.000Z,72.93
2023-05-16T11:17:04.266Z,72.23
2023-05-16T11:19:34.223Z,73.00
2023-05-16T11:22:12.504Z,70.59
2023-05-16T11:24:41.032Z,70.98
2023-05-16T11:27:10.012Z,70.39
2023-05-16T11:29:38.115Z,68.95
2023-05-16T11:32:06.550Z,68.90
2023-05-16T11:34:37.658Z,68.25
2023-05-16T11:37:05.669Z,67.85
2023-05-16T11:39:34.350Z,67.33
2023-05-16T11:42:02.459Z,67.73
2023-05-16T11:44:32.024Z,67.56
2023-05-16T11:47:01.253Z,64.32
2023-05-16T11:49:29.165Z,64.07
2023-05-16T11:51:57.681Z,64.04
2023-05-16T11:54:25.601Z,63.86
2023-05-16T11:56:53.451Z,63.39
2023-05-16T11:59:21.645Z,62.72
2023-05-16T12:01:51.071Z,64.09
2023-05-16T12:04:20.730Z,62.99
2023-05-16T12:07:00.574Z,59.25
2023-05-16T12:09:28.394Z,60.15
2023-05-16T12:11:56.189Z,58.04
2023-05-16T12:14:24.261Z,59.11
2023-05-16T12:16:53.704Z,59.47
2023-05-16T12:19:22.345Z,56.93
2023-05-16T12:21:54.206Z,57.79
2023-05-16T12:24:22.144Z,55.86
2023-05-16T12:26:49.891Z,55.98
2023-05-16T12:29:17.571Z,57.04
2023-05-16T12:31:45.629Z,55.35
2023-05-16T12:34:18.554Z,54.93
2023-05-16T12:36:46.220Z,55.47
2023-05-16T12:39:15.342Z,56.41
2023-05-16T12:41:43.662Z,55.50
2023-05-16T12:44:17.087Z,55.87
2023-05-16T12:46:46.164Z,53.57
2023-05-16T12:49:14.547Z,53.16
2023-05-16T12:51:49.861Z,52.47
2023-05-16T12:54:17.749Z,52.69
2023-05-16T12:56:46.149Z,53.02
2023-05-16T12:59:13.790Z,53.13
2023-05-16T13:01:42.041Z,53.77
2023-05-16T13:04:14.825Z,53.05
2023-05-16T13:06:57.572Z,51.67
2023-05-16T13:09:30.013Z,51.41
2023-05-16T13:11:59.560Z,53.36
2023-05-16T13:14:27.272Z,53.46
2023-05-16T13:16:55.000Z,53.76
2023-05-16T13:19:24.371Z,52.42
2023-05-16T13:21:53.543Z,52.01
2023-05-16T13:24:21.275Z,51.10
2023-05-16T13:26:48.885Z,51.48
2023-05-16T13:29:16.601Z,51.60
2023-05-16T13:31:44.769Z,52.65
2023-05-16T13:34:12.647Z,52.31
2023-05-16T13:36:52.925Z,52.89
2023-05-16T13:39:23.198Z,52.89
2023-05-16T13:41:51.401Z,52.20
2023-05-16T13:44:19.071Z,51.75
2023-05-16T13:46:46.912Z,51.89
2023-05-16T13:49:14.641Z,50.62
2023-05-16T13:51:42.353Z,51.25
2023-05-16T13:54:10.029Z,51.43
2023-05-16T13:56:39.116Z,52.29
2023-05-16T13:59:07.472Z,52.28
2023-05-16T14:01:36.588Z,53.16
2023-05-16T14:04:04.694Z,52.44
2023-05-16T14:06:33.425Z,52.17
2023-05-16T14:09:01.319Z,50.99
2023-05-16T14:11:29.694Z,50.28
2023-05-16T14:13:59.546Z,50.20
2023-05-16T14:16:27.536Z,51.48
2023-05-16T14:18:55.405Z,52.87
2023-05-16T14:21:23.224Z,52.60
2023-05-16T14:23:51.046Z,52.86
2023-05-16T14:26:22.460Z,52.81
2023-05-16T14:28:50.086Z,52.65
2023-05-16T14:31:19.377Z,53.29
2023-05-16T14:33:47.983Z,52.10
2023-05-16T14:36:16.141Z,53.60
2023-05-16T14:38:43.755Z,52.53
2023-05-16T14:41:11.466Z,52.39
2023-05-16T14:43:39.182Z,52.50
2023-05-16T14:46:06.963Z,51.46
2023-05-16T14:48:36.526Z,50.03
2023-05-16T14:51:04.814Z,49.90
2023-05-16T14:53:32.758Z,50.08
2023-05-16T14:56:02.706Z,49.70
2023-05-16T14:58:30.677Z,50.80
2023-05-16T15:00:58.561Z,50.98
2023-05-16T15:03:26.430Z,50.69
2023-05-16T15:05:55.641Z,52.03
2023-05-16T15:08:23.355Z,51.95
2023-05-16T15:10:50.976Z,51.80
2023-05-16T15:13:18.627Z,51.84
2023-05-16T15:15:46.267Z,51.86
2023-05-16T15:18:13.936Z,52.05
2023-05-16T15:20:41.645Z,51.80
2023-05-16T15:23:10.636Z,51.72
2023-05-16T15:25:38.294Z,51.09
2023-05-16T15:28:07.203Z,51.46
2023-05-16T15:30:35.612Z,50.99
2023-05-16T15:33:03.399Z,51.66
2023-05-16T15:35:31.389Z,51.58
2023-05-16T15:37:59.727Z,50.28
2023-05-16T15:40:29.325Z,50.31
2023-05-16T15:42:57.040Z,49.81
2023-05-16T15:45:24.980Z,50.26
2023-05-16T15:47:52.756Z,49.46
2023-05-16T15:50:20.763Z,50.33
2023-05-16T15:52:48.502Z,50.74
2023-05-16T15:55:16.589Z,50.69
2023-05-16T15:57:46.349Z,51.06
2023-05-16T16:00:15.045Z,50.51
2023-05-16T16:02:45.279Z,50.78
2023-05-16T16:05:13.181Z,51.49
2023-05-16T16:07:40.875Z,51.61
2023-05-16T16:10:09.804Z,50.97
2023-05-16T16:12:37.680Z,51.23
2023-05-16T16:15:07.930Z,51.82
2023-05-16T16:17:35.729Z,51.13
2023-05-16T16:20:03.468Z,51.18
2023-05-16T16:22:31.342Z,51.87
2023-05-16T16:24:59.040Z,51.44
2023-05-16T16:27:26.665Z,52.17
2023-05-16T16:29:54.359Z,53.03
2023-05-16T16:32:23.461Z,52.98
2023-05-16T16:34:51.170Z,53.67
2023-05-16T16:37:18.813Z,54.41
2023-05-16T16:39:48.586Z,54.65
2023-05-16T16:42:16.656Z,53.65
2023-05-16T16:44:44.436Z,54.56
2023-05-16T16:47:12.382Z,54.28
2023-05-16T16:49:41.929Z,54.16
2023-05-16T16:52:09.812Z,55.05
2023-05-16T16:54:37.601Z,55.85
2023-05-16T16:57:05.643Z,55.61
2023-05-16T16:59:33.333Z,55.32
2023-05-16T17:02:00.990Z,55.76
2023-05-16T17:04:28.674Z,56.29
2023-05-16T17:06:57.694Z,56.50
2023-05-16T17:09:27.070Z,56.65
2023-05-16T17:11:54.788Z,56.58
2023-05-16T17:14:22.384Z,56.96
2023-05-16T17:16:50.151Z,57.12
2023-05-16T17:19:18.712Z,57.54
2023-05-16T17:21:47.431Z,57.76
2023-05-16T17:24:16.419Z,57.23
2023-05-16T17:26:44.043Z,57.57
2023-05-16T17:29:11.771Z,57.84
2023-05-16T17:31:39.470Z,57.26
2023-05-16T17:34:07.707Z,57.59
2023-05-16T17:36:36.368Z,57.58
2023-05-16T17:39:07.864Z,57.72
2023-05-16T17:41:36.919Z,57.35
2023-05-16T17:44:06.825Z,58.29
2023-05-16T17:46:34.842Z,58.39
2023-05-16T17:49:02.678Z,58.31
2023-05-16T17:51:30.787Z,58.84
2023-05-16T17:53:58.736Z,57.72
2023-05-16T17:56:27.090Z,57.75
2023-05-16T17:58:56.100Z,57.53
2023-05-16T18:01:23.763Z,57.62
2023-05-16T18:03:51.493Z,57.22
2023-05-16T18:06:19.667Z,57.19
2023-05-16T18:08:47.468Z,57.17
2023-05-16T18:11:15.240Z,57.51
2023-05-16T18:13:44.094Z,57.95
2023-05-16T18:16:13.315Z,57.86
2023-05-16T18:18:41.784Z,57.14
2023-05-16T18:21:09.837Z,56.51
2023-05-16T18:23:38.417Z,56.98
2023-05-16T18:26:06.334Z,57.21
2023-05-16T18:28:34.121Z,57.05
2023-05-16T18:31:03.930Z,57.12
2023-05-16T18:33:33.202Z,57.45
2023-05-16T18:36:01.188Z,57.73
2023-05-16T18:38:33.020Z,58.23
2023-05-16T18:41:02.002Z,59.04
2023-05-16T18:43:30.706Z,58.92
2023-05-16T18:45:59.053Z,59.81
2023-05-16T18:48:27.295Z,59.77
2023-05-16T18:50:57.038Z,60.92
2023-05-16T18:53:25.176Z,61.29
2023-05-16T18:55:53.268Z,61.32
2023-05-16T18:58:21.341Z,61.24
2023-05-16T19:00:49.496Z,62.26
2023-05-16T19:03:17.598Z,62.03
2023-05-16T19:05:46.090Z,62.17
2023-05-16T19:08:15.627Z,62.65
2023-05-16T19:10:43.634Z,63.25
2023-05-16T19:13:11.768Z,63.23
2023-05-16T19:15:39.737Z,63.34
2023-05-16T19:18:08.178Z,63.24
2023-05-16T19:20:36.784Z,63.57
2023-05-16T19:23:12.187Z,63.86
2023-05-16T19:25:47.095Z,63.91
2023-05-16T19:28:15.206Z,64.52
2023-05-16T19:30:43.266Z,64.65
2023-05-16T19:33:11.474Z,64.98
2023-05-16T19:35:39.725Z,64.90
2023-05-16T19:38:07.733Z,65.26
2023-05-16T19:40:35.979Z,65.34
2023-05-16T19:43:05.760Z,65.61
2023-05-16T19:45:33.718Z,66.28
2023-05-16T19:48:01.776Z,66.38
2023-05-16T19:50:29.845Z,66.29
2023-05-16T19:52:57.898Z,66.36
2023-05-16T19:55:27.594Z,67.13
2023-05-16T19:57:56.584Z,67.31
2023-05-16T20:00:26.438Z,68.00
2023-05-16T20:02:54.690Z,68.11
2023-05-16T20:05:23.410Z,68.14
2023-05-16T20:07:51.866Z,68.61
2023-05-16T20:10:21.932Z,68.68
2023-05-16T20:12:50.138Z,68.86
2023-05-16T20:15:19.028Z,68.93
2023-05-16T20:17:48.799Z,69.21
2023-05-16T20:20:17.198Z,69.61
2023-05-16T20:22:45.237Z,69.83
2023-05-16T20:25:13.426Z,69.85
2023-05-16T20:27:41.813Z,70.07
2023-05-16T20:30:10.898Z,70.32
2023-05-16T20:32:38.930Z,70.52
2023-05-16T20:35:11.215Z,70.77
2023-05-16T20:37:39.309Z,70.98
2023-05-16T20:40:10.903Z,71.27
2023-05-16T20:42:39.165Z,71.99
2023-05-16T20:45:08.173Z,72.26
2023-05-16T20:47:36.063Z,72.03
2023-05-16T20:50:04.158Z,72.64
2023-05-16T20:52:33.704Z,72.74
2023-05-16T20:55:02.534Z,72.92
2023-05-16T20:57:30.368Z,73.24
2023-05-16T20:59:58.446Z,73.02
2023-05-16T21:02:26.392Z,72.82
2023-05-16T21:04:54.628Z,73.13
2023-05-16T21:07:23.318Z,73.47
2023-05-16T21:09:52.951Z,73.58
2023-05-16T21:12:21.187Z,73.71
2023-05-16T21:14:49.699Z,74.06
2023-05-16T21:17:17.660Z,73.81
2023-05-16T21:19:45.672Z,73.94
2023-05-16T21:22:13.756Z,74.49
2023-05-16T21:24:41.801Z,74.43
2023-05-16T21:27:11.662Z,74.46
2023-05-16T21:29:39.555Z,75.16
2023-05-16T21:32:09.129Z,74.95
2023-05-16T21:34:36.982Z,74.96
2023-05-16T21:37:07.211Z,75.06
2023-05-16T21:39:35.290Z,75.36
2023-05-16T21:42:03.473Z,75.60
2023-05-16T21:44:33.017Z,75.64
2023-05-16T21:47:01.033Z,76.00
2023-05-16T21:49:29.171Z,76.28
2023-05-16T21:51:57.254Z,76.05
2023-05-16T21:54:25.656Z,76.22
2023-05-16T21:56:53.584Z,76.60
2023-05-16T21:59:21.849Z,76.97
2023-05-16T22:01:51.200Z,77.15
2023-05-16T22:04:19.260Z,77.22
2023-05-16T22:06:47.354Z,77.17
2023-05-16T22:09:15.383Z,77.18
2023-05-16T22:11:43.348Z,76.79
2023-05-16T22:14:11.493Z,77.29
2023-05-16T22:16:39.665Z,77.30
2023-05-16T22:19:09.255Z,77.48
2023-05-16T22:21:37.759Z,77.46
2023-05-16T22:24:06.383Z,77.64
2023-05-16T22:26:34.231Z,77.00
2023-05-16T22:29:02.287Z,77.27
2023-05-16T22:31:30.172Z,77.37
2023-05-16T22:33:58.191Z,77.35
2023-05-16T22:36:27.614Z,77.16
2023-05-16T22:38:55.810Z,77.46
2023-05-16T22:41:23.657Z,77.70
2023-05-16T22:43:51.567Z,77.85
2023-05-16T22:46:19.461Z,77.92
2023-05-16T22:48:47.558Z,78.61
2023-05-16T22:51:16.024Z,78.72
2023-05-16T22:53:45.608Z,78.59
2023-05-16T22:56:14.293Z,78.58
2023-05-16T22:58:42.681Z,78.75
2023-05-16T23:01:10.633Z,78.88
2023-05-16T23:03:38.724Z,78.75
2023-05-16T23:06:07.298Z,79.14
2023-05-16T23:08:35.574Z,78.93
2023-05-16T23:11:05.351Z,78.83
2023-05-16T23:13:33.545Z,79.06
2023-05-16T23:16:01.645Z,78.96
2023-05-16T23:18:29.733Z,78.58
2023-05-16T23:20:57.805Z,78.90
2023-05-16T23:23:26.191Z,78.93
2023-05-16T23:25:54.206Z,79.39
2023-05-16T23:28:23.360Z,78.97
2023-05-16T23:30:51.274Z,79.52
2023-05-16T23:33:19.202Z,79.69
2023-05-16T23:35:46.846Z,79.88
2023-05-16T23:38:14.466Z,79.93
2023-05-16T23:40:42.062Z,80.35
2023-05-16T23:43:09.770Z,80.94
2023-05-16T23:45:38.757Z,80.59
2023-05-16T23:48:07.019Z,80.51
2023-05-16T23:50:34.804Z,81.00
2023-05-16T23:53:02.447Z,80.70
2023-05-16T23:55:30.322Z,80.89
2023-05-16T23:57:57.909Z,81.84
